createdAt,value
2022-10-06T00:01:06.068Z,10.20
2022-10-06T00:02:49.104Z,10.20
2022-10-06T00:04:21.280Z,10.10
2022-10-06T00:06:00.550Z,10.10
2022-10-06T00:07:32.618Z,10.10
2022-10-06T00:09:04.826Z,10.10
2022-10-06T00:10:37.437Z,10.10
2022-10-06T00:12:10.565Z,10.10
2022-10-06T00:13:43.550Z,10.10
2022-10-06T00:15:19.403Z,10.10
2022-10-06T00:16:51.587Z,10.10
2022-10-06T00:18:24.024Z,10.00
2022-10-06T00:19:56.036Z,10.00
2022-10-06T00:21:29.205Z,10.00
2022-10-06T00:23:01.558Z,10.00
2022-10-06T00:24:34.298Z,10.00
2022-10-06T00:26:11.033Z,10.00
2022-10-06T00:27:47.202Z,10.00
2022-10-06T00:29:19.253Z,10.00
2022-10-06T00:30:53.658Z,10.00
2022-10-06T00:32:26.004Z,10.00
2022-10-06T00:33:58.042Z,10.00
2022-10-06T00:35:33.743Z,9.90
2022-10-06T00:37:06.072Z,10.00
2022-10-06T00:38:38.228Z,9.90
2022-10-06T00:40:10.802Z,9.90
2022-10-06T00:41:42.922Z,9.90
2022-10-06T00:43:53.124Z,9.90
2022-10-06T00:45:44.899Z,9.90
2022-10-06T00:47:19.685Z,9.90
2022-10-06T00:49:14.106Z,9.90
2022-10-06T00:50:47.048Z,9.80
2022-10-06T00:52:23.012Z,9.80
2022-10-06T00:53:55.814Z,9.80
2022-10-06T00:55:27.861Z,9.90
2022-10-06T00:57:00.244Z,9.90
2022-10-06T00:58:32.807Z,9.80
2022-10-06T01:00:07.133Z,9.90
2022-10-06T01:01:44.523Z,9.90
2022-10-06T01:03:39.378Z,9.90
2022-10-06T01:05:17.566Z,9.90
2022-10-06T01:06:54.333Z,9.90
2022-10-06T01:08:27.059Z,9.90
2022-10-06T01:09:59.764Z,9.90
2022-10-06T01:11:32.470Z,10.00
2022-10-06T01:13:06.660Z,10.00
2022-10-06T01:14:40.444Z,10.00
2022-10-06T01:16:23.413Z,10.00
2022-10-06T01:18:02.995Z,10.00
2022-10-06T01:19:40.736Z,10.00
2022-10-06T01:21:20.159Z,10.00
2022-10-06T01:23:00.840Z,10.00
2022-10-06T01:24:33.274Z,10.00
2022-10-06T01:26:10.076Z,9.90
2022-10-06T01:27:45.533Z,9.90
2022-10-06T01:29:17.828Z,9.90
2022-10-06T01:30:54.387Z,9.90
2022-10-06T01:32:32.552Z,9.90
2022-10-06T01:34:04.963Z,9.90
2022-10-06T01:35:37.815Z,9.90
2022-10-06T01:37:10.047Z,9.90
2022-10-06T01:38:42.088Z,9.90
2022-10-06T01:40:14.599Z,9.90
2022-10-06T01:41:47.907Z,9.90
2022-10-06T01:43:21.076Z,9.80
2022-10-06T01:44:53.268Z,9.80
2022-10-06T01:46:25.355Z,9.70
2022-10-06T01:47:57.847Z,9.70
2022-10-06T01:49:30.114Z,9.60
2022-10-06T01:51:02.148Z,9.50
2022-10-06T01:52:35.923Z,9.50
2022-10-06T01:54:07.976Z,9.40
2022-10-06T01:55:41.171Z,9.40
2022-10-06T01:57:13.466Z,9.40
2022-10-06T01:58:45.611Z,9.30
2022-10-06T02:00:18.177Z,9.30
2022-10-06T02:01:51.582Z,9.20
2022-10-06T02:03:23.659Z,9.20
2022-10-06T02:04:55.741Z,9.20
2022-10-06T02:06:29.270Z,9.20
2022-10-06T02:08:02.707Z,9.20
2022-10-06T02:09:35.351Z,9.10
2022-10-06T02:11:10.139Z,9.10
2022-10-06T02:12:42.379Z,9.10
2022-10-06T02:14:14.728Z,9.00
2022-10-06T02:15:46.951Z,9.00
2022-10-06T02:17:19.047Z,9.00
2022-10-06T02:18:51.293Z,8.90
2022-10-06T02:20:23.783Z,9.00
2022-10-06T02:21:56.388Z,9.00
2022-10-06T02:23:29.954Z,9.00
2022-10-06T02:25:02.045Z,9.00
2022-10-06T02:26:34.500Z,9.00
2022-10-06T02:28:07.129Z,9.10
2022-10-06T02:29:39.536Z,9.10
2022-10-06T02:31:12.616Z,9.10
2022-10-06T02:32:45.155Z,9.10
2022-10-06T02:34:17.455Z,9.10
2022-10-06T02:35:55.645Z,9.20
2022-10-06T02:37:28.064Z,9.20
2022-10-06T02:39:00.413Z,9.20
2022-10-06T02:40:32.775Z,9.20
2022-10-06T02:42:05.396Z,9.20
2022-10-06T02:43:37.843Z,9.30
2022-10-06T02:45:10.309Z,9.30
2022-10-06T02:46:42.529Z,9.30
2022-10-06T02:48:14.788Z,9.30
2022-10-06T02:49:47.052Z,9.30
2022-10-06T02:51:21.659Z,9.30
2022-10-06T02:52:54.106Z,9.30
2022-10-06T02:54:26.218Z,9.30
2022-10-06T02:56:04.642Z,9.30
2022-10-06T02:57:37.649Z,9.30
2022-10-06T02:59:09.761Z,9.30
2022-10-06T03:00:41.838Z,9.30
2022-10-06T03:02:13.964Z,9.30
2022-10-06T03:03:47.050Z,9.30
2022-10-06T03:05:19.629Z,9.40
2022-10-06T03:06:51.758Z,9.40
2022-10-06T03:08:23.833Z,9.40
2022-10-06T03:09:56.235Z,9.40
2022-10-06T03:11:37.372Z,9.40
2022-10-06T03:13:09.522Z,9.40
2022-10-06T03:14:41.572Z,9.40
2022-10-06T03:16:23.738Z,9.40
2022-10-06T03:17:55.839Z,9.40
2022-10-06T03:19:28.299Z,9.40
2022-10-06T03:21:01.504Z,9.40
2022-10-06T03:22:34.091Z,9.40
2022-10-06T03:24:06.310Z,9.40
2022-10-06T03:25:38.362Z,9.40
2022-10-06T03:27:10.423Z,9.40
2022-10-06T03:28:42.785Z,9.40
2022-10-06T03:30:15.543Z,9.40
2022-10-06T03:31:47.699Z,9.40
2022-10-06T03:33:20.133Z,9.40
2022-10-06T03:34:53.350Z,9.50
2022-10-06T03:36:28.228Z,9.50
2022-10-06T03:38:00.471Z,9.50
2022-10-06T03:39:36.603Z,9.50
2022-10-06T03:41:17.788Z,9.50
2022-10-06T03:42:49.984Z,9.60
2022-10-06T03:44:22.807Z,9.60
2022-10-06T03:46:00.873Z,9.60
2022-10-06T03:47:33.191Z,9.60
2022-10-06T03:49:05.508Z,9.70
2022-10-06T03:50:37.567Z,9.70
2022-10-06T03:52:09.616Z,9.70
2022-10-06T03:53:46.576Z,9.70
2022-10-06T03:55:18.603Z,9.70
2022-10-06T03:56:50.726Z,9.70
2022-10-06T03:58:22.789Z,9.70
2022-10-06T03:59:59.196Z,9.70
2022-10-06T04:01:39.386Z,9.70
2022-10-06T04:03:11.634Z,9.70
2022-10-06T04:04:43.723Z,9.70
2022-10-06T04:06:18.525Z,9.70
2022-10-06T04:07:50.580Z,9.70
2022-10-06T04:09:23.247Z,9.70
2022-10-06T04:10:55.817Z,9.70
2022-10-06T04:12:28.318Z,9.70
2022-10-06T04:14:03.405Z,9.70
2022-10-06T04:15:35.610Z,9.70
2022-10-06T04:17:07.672Z,9.70
2022-10-06T04:18:40.599Z,9.70
2022-10-06T04:20:12.842Z,9.70
2022-10-06T04:21:47.004Z,9.70
2022-10-06T04:23:20.851Z,9.70
2022-10-06T04:24:53.304Z,9.70
2022-10-06T04:26:31.492Z,9.70
2022-10-06T04:28:03.965Z,9.70
2022-10-06T04:29:36.144Z,9.70
2022-10-06T04:31:15.445Z,9.60
2022-10-06T04:32:47.683Z,9.60
2022-10-06T04:34:20.224Z,9.60
2022-10-06T04:36:00.155Z,9.60
2022-10-06T04:37:32.471Z,9.50
2022-10-06T04:39:06.003Z,9.50
2022-10-06T04:40:38.065Z,9.50
2022-10-06T04:42:10.054Z,9.50
2022-10-06T04:43:44.515Z,9.60
2022-10-06T04:45:16.649Z,9.50
2022-10-06T04:46:48.804Z,9.50
2022-10-06T04:48:21.299Z,9.50
2022-10-06T04:49:54.104Z,9.50
2022-10-06T04:51:27.594Z,9.50
2022-10-06T04:53:00.406Z,9.50
2022-10-06T04:54:33.893Z,9.60
2022-10-06T04:56:12.973Z,9.60
2022-10-06T04:57:45.414Z,9.60
2022-10-06T04:59:17.779Z,9.60
2022-10-06T05:00:49.879Z,9.70
2022-10-06T05:02:22.713Z,9.70
2022-10-06T05:03:57.701Z,9.70
2022-10-06T05:05:30.820Z,9.80
2022-10-06T05:07:02.990Z,9.90
2022-10-06T05:08:35.644Z,10.00
2022-10-06T05:10:08.007Z,10.10
2022-10-06T05:11:40.591Z,10.50
2022-10-06T05:13:13.833Z,10.90
2022-10-06T05:14:47.024Z,11.40
2022-10-06T05:16:19.231Z,11.80
2022-10-06T05:17:51.453Z,12.30
2022-10-06T05:19:23.987Z,12.80
2022-10-06T05:21:26.509Z,13.00
2022-10-06T05:22:58.971Z,13.50
2022-10-06T05:24:31.219Z,13.90
2022-10-06T05:26:04.588Z,14.30
2022-10-06T05:27:36.643Z,14.70
2022-10-06T05:29:08.904Z,15.20
2022-10-06T05:30:41.064Z,15.70
2022-10-06T05:32:13.723Z,16.10
2022-10-06T05:33:46.349Z,16.00
2022-10-06T05:35:18.704Z,15.80
2022-10-06T05:36:50.848Z,15.50
2022-10-06T05:38:23.605Z,15.90
2022-10-06T05:39:55.826Z,16.00
2022-10-06T05:41:30.716Z,16.40
2022-10-06T05:43:03.315Z,16.20
2022-10-06T05:44:35.722Z,16.50
2022-10-06T05:46:20.418Z,16.60
2022-10-06T05:47:54.146Z,16.40
2022-10-06T05:49:26.201Z,16.40
2022-10-06T05:51:09.721Z,16.50
2022-10-06T05:52:44.934Z,16.90
2022-10-06T05:54:17.029Z,17.50
2022-10-06T05:55:49.054Z,18.00
2022-10-06T05:57:21.368Z,18.20
2022-10-06T05:58:55.525Z,18.50
2022-10-06T06:00:27.574Z,18.30
2022-10-06T06:02:00.204Z,17.90
2022-10-06T06:03:33.213Z,17.90
2022-10-06T06:05:05.709Z,17.50
2022-10-06T06:06:43.788Z,17.40
2022-10-06T06:08:19.582Z,17.70
2022-10-06T06:09:53.219Z,17.80
2022-10-06T06:11:27.727Z,17.80
2022-10-06T06:12:59.889Z,17.30
2022-10-06T06:14:51.205Z,17.20
2022-10-06T06:16:24.765Z,17.20
2022-10-06T06:17:57.372Z,17.10
2022-10-06T06:19:29.586Z,17.10
2022-10-06T06:21:03.867Z,16.70
2022-10-06T06:22:36.727Z,16.50
2022-10-06T06:24:09.292Z,16.20
2022-10-06T06:25:41.420Z,16.00
2022-10-06T06:27:13.488Z,15.80
2022-10-06T06:28:47.838Z,15.40
2022-10-06T06:30:21.208Z,15.00
2022-10-06T06:31:53.383Z,14.50
2022-10-06T06:33:25.403Z,14.20
2022-10-06T06:34:59.070Z,13.90
2022-10-06T06:36:35.876Z,13.60
2022-10-06T06:39:41.333Z,13.00
2022-10-06T06:41:15.915Z,12.90
2022-10-06T06:42:51.602Z,12.90
2022-10-06T06:44:25.981Z,12.80
2022-10-06T06:46:04.924Z,12.70
2022-10-06T06:47:37.361Z,12.60
2022-10-06T06:49:11.995Z,12.70
2022-10-06T06:50:45.786Z,12.60
2022-10-06T06:52:20.326Z,12.50
2022-10-06T06:53:53.732Z,12.90
2022-10-06T06:55:25.852Z,12.90
2022-10-06T06:56:57.915Z,12.80
2022-10-06T06:58:31.024Z,12.80
2022-10-06T07:00:06.281Z,13.00
2022-10-06T07:01:44.819Z,13.30
2022-10-06T07:03:45.259Z,13.70
2022-10-06T07:05:14.522Z,14.10
2022-10-06T07:06:53.261Z,14.90
2022-10-06T07:08:25.380Z,15.30
2022-10-06T07:09:57.381Z,15.60
2022-10-06T07:11:35.171Z,16.10
2022-10-06T07:13:07.350Z,16.50
2022-10-06T07:14:59.551Z,17.20
2022-10-06T07:16:51.498Z,17.90
2022-10-06T07:18:49.495Z,18.40
2022-10-06T07:20:39.956Z,19.10
2022-10-06T07:22:30.819Z,19.30
2022-10-06T07:24:22.297Z,19.20
2022-10-06T07:25:54.572Z,19.00
2022-10-06T07:27:28.252Z,18.80
2022-10-06T07:29:00.297Z,18.90
2022-10-06T07:30:34.166Z,18.70
2022-10-06T07:32:09.474Z,18.70
2022-10-06T07:33:41.903Z,18.80
2022-10-06T07:35:14.962Z,18.80
2022-10-06T07:36:50.321Z,18.70
2022-10-06T07:38:26.007Z,18.50
2022-10-06T07:39:59.508Z,18.30
2022-10-06T07:41:32.888Z,18.20
2022-10-06T07:43:05.239Z,18.20
2022-10-06T07:44:37.389Z,18.10
2022-10-06T07:46:11.401Z,18.10
2022-10-06T07:47:43.708Z,18.10
2022-10-06T07:49:17.480Z,18.20
2022-10-06T07:50:51.588Z,18.70
2022-10-06T07:52:28.947Z,18.90
2022-10-06T07:54:02.098Z,19.00
2022-10-06T07:55:36.142Z,19.10
2022-10-06T07:57:08.374Z,19.10
2022-10-06T07:58:41.931Z,19.10
2022-10-06T08:00:15.917Z,18.90
2022-10-06T08:01:50.109Z,19.00
2022-10-06T08:03:22.383Z,19.00
2022-10-06T08:04:55.300Z,18.90
2022-10-06T08:06:27.967Z,18.90
2022-10-06T08:08:00.672Z,18.90
2022-10-06T08:09:32.974Z,18.90
2022-10-06T08:11:08.157Z,19.00
2022-10-06T08:12:40.754Z,19.00
2022-10-06T08:14:15.189Z,19.00
2022-10-06T08:15:50.017Z,18.90
2022-10-06T08:17:22.773Z,18.80
2022-10-06T08:18:55.011Z,18.60
2022-10-06T08:20:27.703Z,18.60
2022-10-06T08:22:04.416Z,18.50
2022-10-06T08:23:40.603Z,18.30
2022-10-06T08:25:12.842Z,18.30
2022-10-06T08:26:45.174Z,18.30
2022-10-06T08:28:17.540Z,18.10
2022-10-06T08:29:50.222Z,18.10
2022-10-06T08:31:23.361Z,18.10
2022-10-06T08:32:56.617Z,18.00
2022-10-06T08:34:28.791Z,17.90
2022-10-06T08:36:08.735Z,17.90
2022-10-06T08:37:41.647Z,18.00
2022-10-06T08:39:13.940Z,17.90
2022-10-06T08:40:47.104Z,18.00
2022-10-06T08:42:33.550Z,18.10
2022-10-06T08:44:21.407Z,18.20
2022-10-06T08:45:59.961Z,18.20
2022-10-06T08:47:37.243Z,18.30
2022-10-06T08:49:18.343Z,18.40
2022-10-06T08:51:05.265Z,18.50
2022-10-06T08:52:51.158Z,18.60
2022-10-06T08:55:01.514Z,18.70
2022-10-06T08:56:48.799Z,19.10
2022-10-06T08:58:51.078Z,19.70
2022-10-06T09:00:23.697Z,20.10
2022-10-06T09:01:56.051Z,20.40
2022-10-06T09:03:30.103Z,20.60
2022-10-06T09:05:05.058Z,20.90
2022-10-06T09:06:59.972Z,21.10
2022-10-06T09:08:43.668Z,21.20
2022-10-06T09:10:36.013Z,21.30
2022-10-06T09:12:19.482Z,21.50
2022-10-06T09:14:06.281Z,21.90
2022-10-06T09:15:46.723Z,22.20
2022-10-06T09:17:54.321Z,22.40
2022-10-06T09:19:38.892Z,22.70
2022-10-06T09:21:19.626Z,22.70
2022-10-06T09:22:56.251Z,22.70
2022-10-06T09:24:34.644Z,22.70
2022-10-06T09:26:12.347Z,22.70
2022-10-06T09:27:50.664Z,22.80
2022-10-06T09:29:23.541Z,22.80
2022-10-06T09:30:56.636Z,23.00
2022-10-06T09:32:30.723Z,22.90
2022-10-06T09:34:13.399Z,23.10
2022-10-06T09:36:09.152Z,23.20
2022-10-06T09:37:58.252Z,23.40
2022-10-06T09:39:44.600Z,23.50
2022-10-06T09:41:16.912Z,23.70
2022-10-06T09:42:49.696Z,23.80
2022-10-06T09:44:29.057Z,23.80
2022-10-06T09:46:20.568Z,23.90
2022-10-06T09:47:52.790Z,23.90
2022-10-06T09:49:31.347Z,24.10
2022-10-06T09:51:14.713Z,24.30
2022-10-06T09:52:49.509Z,24.30
2022-10-06T09:54:22.075Z,24.20
2022-10-06T09:55:55.326Z,24.40
2022-10-06T09:57:27.367Z,24.50
2022-10-06T09:59:00.488Z,24.50
2022-10-06T10:00:36.612Z,24.50
2022-10-06T10:02:40.863Z,24.50
2022-10-06T10:04:30.388Z,24.40
2022-10-06T10:06:02.906Z,24.20
2022-10-06T10:07:36.511Z,24.00
2022-10-06T10:09:30.096Z,24.00
2022-10-06T10:11:28.260Z,23.90
2022-10-06T10:13:01.062Z,23.90
2022-10-06T10:14:38.515Z,23.80
2022-10-06T10:16:16.510Z,23.80
2022-10-06T10:17:52.552Z,23.60
2022-10-06T10:19:36.459Z,23.60
2022-10-06T10:21:10.450Z,23.60
2022-10-06T10:22:42.756Z,23.50
2022-10-06T10:24:38.603Z,23.40
2022-10-06T10:26:39.032Z,23.50
2022-10-06T10:28:21.370Z,23.40
2022-10-06T10:30:07.995Z,23.20
2022-10-06T10:32:15.862Z,23.10
2022-10-06T10:34:24.018Z,23.20
2022-10-06T10:35:59.531Z,23.20
2022-10-06T10:37:43.187Z,23.10
2022-10-06T10:39:30.316Z,23.10
2022-10-06T10:41:24.422Z,22.90
2022-10-06T10:43:29.545Z,23.00
2022-10-06T10:45:05.905Z,22.90
2022-10-06T10:46:48.851Z,22.80
2022-10-06T10:48:36.861Z,22.80
2022-10-06T10:50:20.741Z,22.90
2022-10-06T10:52:03.836Z,22.90
2022-10-06T10:53:50.683Z,22.90
2022-10-06T10:55:42.041Z,22.90
2022-10-06T10:57:19.757Z,22.70
2022-10-06T10:59:10.980Z,22.80
2022-10-06T11:00:50.196Z,22.80
2022-10-06T11:02:23.371Z,22.70
2022-10-06T11:03:58.386Z,22.70
2022-10-06T11:06:06.811Z,22.80
2022-10-06T11:07:42.987Z,22.70
2022-10-06T11:09:26.575Z,22.70
2022-10-06T11:11:08.443Z,22.70
2022-10-06T11:13:04.992Z,22.90
2022-10-06T11:14:50.264Z,22.90
2022-10-06T11:17:01.360Z,22.90
2022-10-06T11:19:14.856Z,22.90
2022-10-06T11:21:16.091Z,22.70
2022-10-06T11:23:10.264Z,22.60
2022-10-06T11:25:13.566Z,22.50
2022-10-06T11:27:10.376Z,22.40
2022-10-06T11:28:53.754Z,22.10
2022-10-06T11:30:26.798Z,21.90
2022-10-06T11:32:26.532Z,21.90
2022-10-06T11:34:04.840Z,21.80
2022-10-06T11:35:44.528Z,21.70
2022-10-06T11:37:26.141Z,21.60
2022-10-06T11:39:06.334Z,21.60
2022-10-06T11:41:09.944Z,21.60
2022-10-06T11:43:07.427Z,21.50
2022-10-06T11:44:46.580Z,21.50
2022-10-06T11:46:49.517Z,21.50
2022-10-06T11:48:32.481Z,21.50
2022-10-06T11:50:39.283Z,21.50
2022-10-06T11:52:11.533Z,21.40
2022-10-06T11:53:45.428Z,21.50
2022-10-06T11:55:24.091Z,21.50
2022-10-06T11:56:56.334Z,21.50
2022-10-06T11:58:41.970Z,21.50
2022-10-06T12:00:14.763Z,21.50
2022-10-06T12:01:47.826Z,21.50
2022-10-06T12:03:31.022Z,21.40
2022-10-06T12:05:54.428Z,21.30
2022-10-06T12:07:07.663Z,21.20
2022-10-06T12:08:41.587Z,21.20
2022-10-06T12:10:29.071Z,21.10
2022-10-06T12:12:27.167Z,21.00
2022-10-06T12:19:18.144Z,21.30
2022-10-06T12:20:54.560Z,21.40
2022-10-06T12:22:31.841Z,21.50
2022-10-06T12:24:19.947Z,21.60
2022-10-06T12:26:27.931Z,21.70
2022-10-06T12:28:21.065Z,21.70
2022-10-06T12:30:05.280Z,21.70
2022-10-06T12:32:04.731Z,21.70
2022-10-06T12:33:40.203Z,21.70
2022-10-06T12:35:40.186Z,21.60
2022-10-06T12:37:53.988Z,21.50
2022-10-06T12:39:26.880Z,21.40
2022-10-06T12:40:59.769Z,21.30
2022-10-06T12:42:32.476Z,21.20
2022-10-06T12:44:45.631Z,21.20
2022-10-06T12:46:43.765Z,21.10
2022-10-06T12:48:34.865Z,21.00
2022-10-06T12:50:39.197Z,20.90
2022-10-06T12:52:35.956Z,21.00
2022-10-06T12:54:19.507Z,20.90
2022-10-06T12:56:00.610Z,20.90
2022-10-06T12:57:52.054Z,20.90
2022-10-06T12:59:40.042Z,20.90
2022-10-06T13:01:13.776Z,20.80
2022-10-06T13:02:46.313Z,20.80
2022-10-06T13:04:38.188Z,20.80
2022-10-06T13:06:11.182Z,20.70
2022-10-06T13:08:05.939Z,20.70
2022-10-06T13:09:38.354Z,20.70
2022-10-06T13:11:29.770Z,20.60
2022-10-06T13:13:01.928Z,20.70
2022-10-06T13:14:35.064Z,20.70
2022-10-06T13:16:08.832Z,20.80
2022-10-06T13:18:14.464Z,20.80
2022-10-06T13:19:46.750Z,20.70
2022-10-06T13:21:19.956Z,20.80
2022-10-06T13:22:59.478Z,20.80
2022-10-06T13:24:31.718Z,20.70
2022-10-06T13:26:23.537Z,20.60
2022-10-06T13:27:56.334Z,20.60
2022-10-06T13:29:28.781Z,20.50
2022-10-06T13:31:14.821Z,20.50
2022-10-06T13:32:54.074Z,20.50
2022-10-06T13:34:43.457Z,20.30
2022-10-06T13:36:16.762Z,20.20
2022-10-06T13:37:49.425Z,20.20
2022-10-06T13:39:25.611Z,20.10
2022-10-06T13:41:17.530Z,20.00
2022-10-06T13:42:49.777Z,19.90
2022-10-06T13:44:55.023Z,19.80
2022-10-06T13:46:32.373Z,19.70
2022-10-06T13:48:15.666Z,19.60
2022-10-06T13:50:02.809Z,19.40
2022-10-06T13:51:35.940Z,19.20
2022-10-06T13:53:32.295Z,19.20
2022-10-06T13:55:26.452Z,19.10
2022-10-06T13:56:59.519Z,19.00
2022-10-06T13:58:31.697Z,18.90
2022-10-06T14:00:29.092Z,18.80
2022-10-06T14:02:19.587Z,18.80
2022-10-06T14:04:18.170Z,18.80
2022-10-06T14:06:03.834Z,18.80
2022-10-06T14:07:43.739Z,18.70
2022-10-06T14:09:25.076Z,18.70
2022-10-06T14:11:02.905Z,18.70
2022-10-06T14:12:36.527Z,18.70
2022-10-06T14:14:18.321Z,18.60
2022-10-06T14:16:07.077Z,18.70
2022-10-06T14:17:40.986Z,18.70
2022-10-06T14:19:36.465Z,18.70
2022-10-06T14:21:38.959Z,18.70
2022-10-06T14:23:41.218Z,18.70
2022-10-06T14:25:15.261Z,18.70
2022-10-06T14:26:49.879Z,18.60
2022-10-06T14:28:23.011Z,18.60
2022-10-06T14:29:57.107Z,18.60
2022-10-06T14:31:31.836Z,18.60
2022-10-06T14:33:04.112Z,18.50
2022-10-06T14:34:36.678Z,18.50
2022-10-06T14:36:29.074Z,18.50
2022-10-06T14:38:01.333Z,18.50
2022-10-06T14:39:33.440Z,18.40
2022-10-06T14:41:06.537Z,18.40
2022-10-06T14:42:38.758Z,18.40
2022-10-06T14:44:12.985Z,18.40
2022-10-06T14:45:45.547Z,18.30
2022-10-06T14:47:17.884Z,18.30
2022-10-06T14:48:51.313Z,18.30
2022-10-06T14:50:23.652Z,18.30
2022-10-06T14:51:56.739Z,18.30
2022-10-06T14:53:29.172Z,18.20
2022-10-06T14:55:01.624Z,18.20
2022-10-06T14:56:37.731Z,18.20
2022-10-06T14:58:10.246Z,18.20
2022-10-06T14:59:42.703Z,18.10
2022-10-06T15:01:17.199Z,18.10
2022-10-06T15:02:49.898Z,18.10
2022-10-06T15:04:24.916Z,18.10
2022-10-06T15:06:21.603Z,18.10
2022-10-06T15:08:12.084Z,18.10
2022-10-06T15:09:44.551Z,18.10
2022-10-06T15:11:21.652Z,18.10
2022-10-06T15:12:53.883Z,18.20
2022-10-06T15:14:28.370Z,18.20
2022-10-06T15:16:02.589Z,18.20
2022-10-06T15:17:35.766Z,18.20
2022-10-06T15:19:11.582Z,18.20
2022-10-06T15:20:47.958Z,18.20
2022-10-06T15:22:20.364Z,18.20
2022-10-06T15:23:58.581Z,18.20
2022-10-06T15:25:49.409Z,18.10
2022-10-06T15:29:13.834Z,18.00
2022-10-06T15:30:46.368Z,18.00
2022-10-06T15:32:18.864Z,17.90
2022-10-06T15:33:53.619Z,17.90
2022-10-06T15:35:26.015Z,17.80
2022-10-06T15:36:59.398Z,17.70
2022-10-06T15:38:37.580Z,17.70
2022-10-06T15:40:10.023Z,17.70
2022-10-06T15:41:44.584Z,17.60
2022-10-06T15:43:36.707Z,17.50
2022-10-06T15:45:09.631Z,17.50
2022-10-06T15:46:45.802Z,17.40
2022-10-06T15:48:19.324Z,17.40
2022-10-06T15:49:51.410Z,17.30
2022-10-06T15:51:23.752Z,17.30
2022-10-06T15:52:56.114Z,17.30
2022-10-06T15:54:37.489Z,17.20
2022-10-06T15:56:10.533Z,17.20
2022-10-06T15:57:42.692Z,17.10
2022-10-06T15:59:17.111Z,17.00
2022-10-06T16:00:49.677Z,17.00
2022-10-06T16:02:22.280Z,16.90
2022-10-06T16:03:55.326Z,16.90
2022-10-06T16:05:47.088Z,16.90
2022-10-06T16:07:20.607Z,16.80
2022-10-06T16:08:52.763Z,16.80
2022-10-06T16:10:25.030Z,16.80
2022-10-06T16:12:00.158Z,16.70
2022-10-06T16:13:32.422Z,16.70
2022-10-06T16:15:05.208Z,16.60
2022-10-06T16:16:42.635Z,16.60
2022-10-06T16:18:15.931Z,16.50
2022-10-06T16:19:48.113Z,16.50
2022-10-06T16:21:21.292Z,16.50
2022-10-06T16:22:54.486Z,16.40
2022-10-06T16:24:27.459Z,16.40
2022-10-06T16:26:02.294Z,16.40
2022-10-06T16:27:35.344Z,16.40
2022-10-06T16:29:08.111Z,16.40
2022-10-06T16:30:40.460Z,16.30
2022-10-06T16:32:12.669Z,16.30
2022-10-06T16:33:48.091Z,16.20
2022-10-06T16:35:20.349Z,16.20
2022-10-06T16:36:53.240Z,16.20
2022-10-06T16:38:26.819Z,16.10
2022-10-06T16:39:58.957Z,16.10
2022-10-06T16:41:31.090Z,16.00
2022-10-06T16:43:03.473Z,15.90
2022-10-06T16:44:35.910Z,15.80
2022-10-06T16:46:16.224Z,15.80
2022-10-06T16:47:48.602Z,15.80
2022-10-06T16:49:21.234Z,15.70
2022-10-06T16:51:23.533Z,15.70
2022-10-06T16:52:56.012Z,15.60
2022-10-06T16:54:28.334Z,15.60
2022-10-06T16:56:00.496Z,15.50
2022-10-06T16:57:35.669Z,15.50
2022-10-06T16:59:18.972Z,15.50
2022-10-06T17:00:58.624Z,15.40
2022-10-06T17:02:30.835Z,15.40
2022-10-06T17:04:14.137Z,15.40
2022-10-06T17:05:46.424Z,15.40
2022-10-06T17:07:18.835Z,15.30
2022-10-06T17:08:53.469Z,15.30
2022-10-06T17:10:25.999Z,15.30
2022-10-06T17:12:01.926Z,15.20
2022-10-06T17:13:36.863Z,15.20
2022-10-06T17:15:09.284Z,15.20
2022-10-06T17:16:44.907Z,15.10
2022-10-06T17:18:17.180Z,15.10
2022-10-06T17:19:49.557Z,15.10
2022-10-06T17:21:44.123Z,15.10
2022-10-06T17:23:14.846Z,15.00
2022-10-06T17:24:46.941Z,15.00
2022-10-06T17:26:27.478Z,15.00
2022-10-06T17:27:59.694Z,15.00
2022-10-06T17:29:31.851Z,14.90
2022-10-06T17:31:06.118Z,14.90
2022-10-06T17:32:38.956Z,14.90
2022-10-06T17:34:22.279Z,14.80
2022-10-06T17:35:56.801Z,14.80
2022-10-06T17:37:29.722Z,14.80
2022-10-06T17:39:04.344Z,14.80
2022-10-06T17:40:44.537Z,14.70
2022-10-06T17:42:16.755Z,14.70
2022-10-06T17:43:51.848Z,14.60
2022-10-06T17:45:25.093Z,14.60
2022-10-06T17:47:00.656Z,14.60
2022-10-06T17:48:33.515Z,14.60
2022-10-06T17:50:06.475Z,14.60
2022-10-06T17:51:41.631Z,14.50
2022-10-06T17:53:14.688Z,14.50
2022-10-06T17:54:46.863Z,14.50
2022-10-06T17:56:23.574Z,14.50
2022-10-06T17:57:58.615Z,14.50
2022-10-06T17:59:31.985Z,14.40
2022-10-06T18:01:12.368Z,14.40
2022-10-06T18:02:46.695Z,14.40
2022-10-06T18:04:19.831Z,14.40
2022-10-06T18:05:58.925Z,14.40
2022-10-06T18:07:31.012Z,14.40
2022-10-06T18:09:05.662Z,14.30
2022-10-06T18:10:59.679Z,14.30
2022-10-06T18:12:38.343Z,14.30
2022-10-06T18:14:15.346Z,14.20
2022-10-06T18:15:49.542Z,14.20
2022-10-06T18:17:24.153Z,14.20
2022-10-06T18:19:01.512Z,14.20
2022-10-06T18:20:40.025Z,14.10
2022-10-06T18:22:13.017Z,14.00
2022-10-06T18:23:47.164Z,14.00
2022-10-06T18:25:24.430Z,14.00
2022-10-06T18:27:02.034Z,13.90
2022-10-06T18:28:34.615Z,13.90
2022-10-06T18:30:08.143Z,13.80
2022-10-06T18:31:40.503Z,13.80
2022-10-06T18:36:10.891Z,13.80
2022-10-06T18:36:58.299Z,13.70
2022-10-06T18:38:31.932Z,13.60
2022-10-06T18:40:06.892Z,13.60
2022-10-06T18:41:44.456Z,13.50
2022-10-06T18:43:16.721Z,13.50
2022-10-06T18:45:07.515Z,13.50
2022-10-06T18:46:58.491Z,13.50
2022-10-06T18:48:49.492Z,13.40
2022-10-06T18:50:21.840Z,13.40
2022-10-06T18:51:58.283Z,13.30
2022-10-06T18:53:36.291Z,13.30
2022-10-06T18:55:09.015Z,13.30
2022-10-06T18:56:45.579Z,13.30
2022-10-06T18:58:17.785Z,13.20
2022-10-06T18:59:49.923Z,13.20
2022-10-06T19:01:22.888Z,13.20
2022-10-06T19:02:56.813Z,13.20
2022-10-06T19:04:29.156Z,13.20
2022-10-06T19:06:01.303Z,13.10
2022-10-06T19:07:34.255Z,13.10
2022-10-06T19:09:06.972Z,13.10
2022-10-06T19:10:59.296Z,13.00
2022-10-06T19:12:31.448Z,13.10
2022-10-06T19:14:04.042Z,13.00
2022-10-06T19:15:36.268Z,13.00
2022-10-06T19:17:14.003Z,13.00
2022-10-06T19:18:46.435Z,13.00
2022-10-06T19:20:18.924Z,13.00
2022-10-06T19:22:03.162Z,13.00
2022-10-06T19:23:37.453Z,13.00
2022-10-06T19:25:09.667Z,13.00
2022-10-06T19:26:46.116Z,12.90
2022-10-06T19:28:18.675Z,12.90
2022-10-06T19:29:56.770Z,12.90
2022-10-06T19:31:30.120Z,12.90
2022-10-06T19:33:02.422Z,12.90
2022-10-06T19:34:37.356Z,12.90
2022-10-06T19:36:09.997Z,12.90
2022-10-06T19:37:42.340Z,12.80
2022-10-06T19:39:17.104Z,12.80
2022-10-06T19:40:50.799Z,12.80
2022-10-06T19:42:41.945Z,12.80
2022-10-06T19:44:14.182Z,12.80
2022-10-06T19:45:57.823Z,12.80
2022-10-06T19:47:30.068Z,12.80
2022-10-06T19:49:05.818Z,12.70
2022-10-06T19:50:38.968Z,12.70
2022-10-06T19:52:13.357Z,12.70
2022-10-06T19:53:51.383Z,12.70
2022-10-06T19:55:24.524Z,12.70
2022-10-06T19:56:58.432Z,12.70
2022-10-06T19:58:33.418Z,12.70
2022-10-06T20:00:07.502Z,12.60
2022-10-06T20:01:42.243Z,12.60
2022-10-06T20:03:14.432Z,12.60
2022-10-06T20:04:46.955Z,12.60
2022-10-06T20:06:20.780Z,12.60
2022-10-06T20:07:52.937Z,12.60
2022-10-06T20:09:25.143Z,12.50
2022-10-06T20:11:11.483Z,12.50
2022-10-06T20:12:43.640Z,12.50
2022-10-06T20:14:21.219Z,12.50
2022-10-06T20:15:53.492Z,12.50
2022-10-06T20:17:25.962Z,12.40
2022-10-06T20:18:58.132Z,12.40
2022-10-06T20:20:30.252Z,12.40
2022-10-06T20:22:03.264Z,12.40
2022-10-06T20:23:35.674Z,12.40
2022-10-06T20:25:08.017Z,12.40
2022-10-06T20:26:42.474Z,12.30
2022-10-06T20:28:14.888Z,12.30
2022-10-06T20:29:47.305Z,12.30
2022-10-06T20:31:25.608Z,12.30
2022-10-06T20:32:58.078Z,12.30
2022-10-06T20:34:33.761Z,12.30
2022-10-06T20:36:07.083Z,12.20
2022-10-06T20:37:41.899Z,12.20
2022-10-06T20:39:37.953Z,12.20
2022-10-06T20:41:10.569Z,12.20
2022-10-06T20:42:45.521Z,12.20
2022-10-06T20:44:18.150Z,12.20
2022-10-06T20:45:53.922Z,12.10
2022-10-06T20:47:26.316Z,12.10
2022-10-06T20:49:03.653Z,12.10
2022-10-06T20:50:35.888Z,12.10
2022-10-06T20:52:09.735Z,12.10
2022-10-06T20:53:42.188Z,12.00
2022-10-06T20:55:14.841Z,12.00
2022-10-06T20:56:53.435Z,12.00
2022-10-06T20:58:26.590Z,12.00
2022-10-06T20:59:59.691Z,12.00
2022-10-06T21:01:32.051Z,12.00
2022-10-06T21:03:04.972Z,12.00
2022-10-06T21:04:37.229Z,12.00
2022-10-06T21:06:10.384Z,11.90
2022-10-06T21:07:42.725Z,12.00
2022-10-06T21:09:18.922Z,11.90
2022-10-06T21:11:00.124Z,11.90
2022-10-06T21:12:32.490Z,11.90